Time;durP1;ratioP1;P1;durP2;ratioP2;P2;SDS_P1;SDS_P2;PMS_P1;PMS_P2;Temp;Humidity;BMP_temperature;BMP_pressure;BME280_temperature;BME280_humidity;BME280_pressure;Samples;Min_cycle;Max_cycle;Signal;HPM_P1;HPM_P2
2024/02/06 00:00:01;;;;;;;;;11.67;10.67;;;;;13.76;100.00;101728.22;2096413;28;47162;-71
2024/02/06 00:01:02;;;;;;;;;13.50;10.50;;;;;13.68;100.00;101730.13;2106240;28;45214;-71
2024/02/06 00:02:03;;;;;;;;;9.33;9.33;;;;;13.73;100.00;101726.47;2104335;27;46416;-71
2024/02/06 00:03:03;;;;;;;;;12.40;12.40;;;;;13.72;100.00;101724.72;2105530;27;46990;-71
2024/02/06 00:04:04;;;;;;;;;12.00;12.00;;;;;13.70;100.00;101726.50;2104493;28;46525;-71
2024/02/06 00:05:05;;;;;;;;;9.33;9.33;;;;;13.68;100.00;101715.00;2104535;27;46316;-71
2024/02/06 00:06:06;;;;;;;;;11.50;10.75;;;;;13.55;100.00;101724.13;2101925;28;46328;-71
2024/02/06 00:07:08;;;;;;;;;12.00;12.00;;;;;13.47;100.00;101720.75;2106419;27;45903;-72
2024/02/06 00:08:08;;;;;;;;;12.00;12.00;;;;;13.50;100.00;101721.56;2106000;27;46850;-72
2024/02/06 00:09:09;;;;;;;;;14.75;12.75;;;;;13.55;100.00;101722.34;2105739;28;46470;-71
2024/02/06 00:10:09;;;;;;;;;17.25;14.00;;;;;13.45;100.00;101715.41;2104750;28;46769;-71
2024/02/06 00:11:10;;;;;;;;;13.33;13.33;;;;;13.44;100.00;101720.78;2105388;28;46414;-71
2024/02/06 00:12:10;;;;;;;;;12.33;12.00;;;;;13.48;100.00;101706.50;2105689;28;46288;-71
2024/02/06 00:13:10;;;;;;;;;12.75;11.75;;;;;13.48;100.00;101717.16;2105700;27;46901;-72
2024/02/06 00:14:11;;;;;;;;;12.67;12.00;;;;;13.47;100.00;101713.63;2105493;27;46479;-71
2024/02/06 00:15:11;;;;;;;;;12.67;12.67;;;;;13.47;100.00;101718.97;2105719;28;46772;-71
2024/02/06 00:16:13;;;;;;;;;17.50;15.00;;;;;13.69;100.00;101714.09;2105426;28;46388;-71
2024/02/06 00:17:13;;;;;;;;;13.40;11.40;;;;;13.73;100.00;101715.81;2104799;27;46307;-71
2024/02/06 00:18:14;;;;;;;;;14.25;12.25;;;;;13.67;100.00;101710.56;2105634;27;46496;-69
2024/02/06 00:19:14;;;;;;;;;13.25;12.75;;;;;13.66;100.00;101710.59;2104758;28;46288;-71
2024/02/06 00:20:19;;;;;;;;;11.33;10.00;;;;;13.56;100.00;101715.22;2103733;28;46624;-71
2024/02/06 00:21:19;;;;;;;;;10.75;10.75;;;;;13.54;100.00;101714.38;2105474;27;46981;-69
2024/02/06 00:22:20;;;;;;;;;12.25;12.25;;;;;13.54;100.00;101725.03;2100164;27;47049;-70
2024/02/06 00:23:20;;;;;;;;;13.33;10.33;;;;;13.52;100.00;101714.41;2105536;28;46645;-70
2024/02/06 00:24:21;;;;;;;;;15.00;14.00;;;;;13.52;100.00;101722.41;2105689;28;46228;-72
2024/02/06 00:25:21;;;;;;;;;12.60;12.00;;;;;13.51;100.00;101720.66;2105745;27;46625;-71
2024/02/06 00:26:22;;;;;;;;;14.50;13.75;;;;;13.54;100.00;101712.59;2103838;28;46447;-71
2024/02/06 00:27:22;;;;;;;;;14.25;14.25;;;;;13.66;100.00;101719.50;2101931;28;44956;-71
2024/02/06 00:28:23;;;;;;;;;14.67;12.67;;;;;13.69;100.00;101700.75;2105926;27;45870;-72
2024/02/06 00:29:25;;;;;;;;;11.75;11.50;;;;;13.67;100.00;101707.91;2105552;27;46477;-71
2024/02/06 00:30:25;;;;;;;;;13.20;12.20;;;;;13.65;100.00;101704.41;2105677;28;46494;-70
2024/02/06 00:31:26;;;;;;;;;12.00;10.67;;;;;13.65;100.00;101709.72;2113009;27;45484;-71
2024/02/06 00:32:26;;;;;;;;;12.33;12.00;;;;;13.66;100.00;101711.50;2113953;27;46527;-71
2024/02/06 00:33:27;;;;;;;;;12.00;11.00;;;;;13.68;100.00;101714.13;2114298;27;46265;-72
2024/02/06 00:34:27;;;;;;;;;15.00;11.33;;;;;13.66;100.00;101703.47;2113874;27;46406;-72
2024/02/06 00:35:29;;;;;;;;;13.67;13.00;;;;;13.67;100.00;101697.25;2114266;27;46215;-72
2024/02/06 00:36:29;;;;;;;;;15.20;14.60;;;;;13.67;100.00;101694.56;2113986;27;46304;-71
2024/02/06 00:37:32;;;;;;;;;13.00;12.00;;;;;13.73;100.00;101697.13;2113949;27;45472;-71
2024/02/06 00:38:32;;;;;;;;;12.75;12.00;;;;;13.75;100.00;101700.66;2113723;27;46515;-71
2024/02/06 00:39:33;;;;;;;;;13.25;13.25;;;;;13.72;100.00;101692.72;2105455;28;46208;-73
2024/02/06 00:40:33;;;;;;;;;12.75;12.75;;;;;13.76;100.00;101699.75;2103813;27;46352;-71
2024/02/06 00:41:33;;;;;;;;;13.25;12.25;;;;;13.74;100.00;101693.56;2113896;27;46276;-71
2024/02/06 00:42:34;;;;;;;;;15.00;14.00;;;;;13.70;100.00;101694.50;2113785;27;46316;-71
2024/02/06 00:43:34;;;;;;;;;13.00;11.33;;;;;13.71;100.00;101687.38;2104810;28;46626;-71
2024/02/06 00:44:35;;;;;;;;;13.00;11.33;;;;;13.70;100.00;101689.16;2105034;28;46191;-72
2024/02/06 00:45:35;;;;;;;;;9.50;9.50;;;;;13.60;100.00;101692.06;2113909;27;46734;-70
2024/02/06 00:46:35;;;;;;;;;10.33;10.33;;;;;13.71;100.00;101692.72;2114090;27;46294;-71
2024/02/06 00:47:35;;;;;;;;;11.50;10.25;;;;;13.71;100.00;101690.03;2114285;27;46829;-70
2024/02/06 00:48:36;;;;;;;;;15.00;13.75;;;;;13.53;100.00;101686.84;2113880;27;45189;-70
2024/02/06 00:49:36;;;;;;;;;18.00;12.00;;;;;13.56;100.00;101696.56;2114154;27;46269;-71
2024/02/06 00:50:36;;;;;;;;;12.25;12.00;;;;;13.53;100.00;101684.16;2114227;27;46051;-72
2024/02/06 00:51:37;;;;;;;;;11.00;11.00;;;;;13.65;100.00;101687.50;2113972;27;46435;-72
2024/02/06 00:52:37;;;;;;;;;11.00;11.00;;;;;13.57;100.00;101684.97;2113541;27;46585;-72
2024/02/06 00:53:37;;;;;;;;;13.00;12.75;;;;;13.57;100.00;101681.44;2113408;27;46368;-70
2024/02/06 00:54:38;;;;;;;;;16.00;14.50;;;;;13.58;100.00;101680.53;2105321;28;45480;-70
2024/02/06 00:55:38;;;;;;;;;13.00;12.00;;;;;13.58;100.00;101676.06;2104938;28;45955;-71
2024/02/06 00:56:41;;;;;;;;;16.00;12.75;;;;;13.55;100.00;101677.00;2089653;28;46797;-71
2024/02/06 00:57:42;;;;;;;;;12.75;11.25;;;;;13.57;100.00;101682.31;2097051;27;46209;-70
2024/02/06 00:58:42;;;;;;;;;12.25;11.50;;;;;13.57;100.00;101681.44;2114019;27;46854;-70
2024/02/06 00:59:42;;;;;;;;;12.00;9.33;;;;;13.55;100.00;101682.34;2114054;27;47411;-72
2024/02/06 01:00:43;;;;;;;;;13.33;13.33;;;;;13.53;100.00;101680.63;2114326;27;45794;-72
2024/02/06 01:01:43;;;;;;;;;13.00;12.67;;;;;13.51;100.00;101675.31;2113889;27;46440;-72
2024/02/06 01:02:43;;;;;;;;;15.50;14.25;;;;;13.49;100.00;101666.47;2113743;27;45920;-71
2024/02/06 01:03:44;;;;;;;;;11.00;10.00;;;;;13.46;100.00;101669.16;2113773;27;46545;-71
2024/02/06 01:04:45;;;;;;;;;14.67;14.67;;;;;13.49;100.00;101668.25;2114166;27;46618;-71
2024/02/06 01:05:45;;;;;;;;;11.50;11.50;;;;;13.54;100.00;101675.25;2114739;27;46539;-71
2024/02/06 01:06:46;;;;;;;;;16.00;14.25;;;;;13.58;100.00;101677.84;2104815;28;46296;-72
2024/02/06 01:07:47;;;;;;;;;14.50;12.50;;;;;13.57;100.00;101673.44;2105018;27;46483;-72
2024/02/06 01:08:48;;;;;;;;;14.00;14.00;;;;;13.52;100.00;101668.19;2113423;27;45980;-71
2024/02/06 01:09:49;;;;;;;;;12.25;11.25;;;;;13.52;100.00;101665.53;2113926;27;45952;-71
2024/02/06 01:10:49;;;;;;;;;13.33;11.33;;;;;13.51;100.00;101669.09;2113928;27;46311;-72
2024/02/06 01:11:49;;;;;;;;;13.33;13.33;;;;;13.50;100.00;101668.22;2114280;27;46636;-71
2024/02/06 01:12:50;;;;;;;;;16.00;13.00;;;;;13.46;100.00;101661.16;2111893;27;46643;-71
2024/02/06 01:13:52;;;;;;;;;15.00;14.25;;;;;13.47;100.00;101664.75;2116123;27;45800;-71
2024/02/06 01:14:52;;;;;;;;;16.80;15.20;;;;;13.50;100.00;101668.22;2115750;27;45926;-71
2024/02/06 01:15:52;;;;;;;;;15.33;12.00;;;;;13.48;100.00;101663.84;2117024;27;46459;-70
2024/02/06 01:16:53;;;;;;;;;14.33;13.33;;;;;13.46;100.00;101660.28;2117229;27;46223;-71
2024/02/06 01:17:54;;;;;;;;;14.33;14.33;;;;;13.47;100.00;101656.75;2115634;27;46879;-71
2024/02/06 01:18:54;;;;;;;;;13.80;12.60;;;;;13.45;100.00;101663.88;2115235;27;46573;-69
2024/02/06 01:19:54;;;;;;;;;13.67;11.67;;;;;13.46;100.00;101657.63;2116335;27;46786;-71
2024/02/06 01:20:55;;;;;;;;;13.00;13.00;;;;;13.47;100.00;101664.75;2115581;27;46508;-69
2024/02/06 01:21:56;;;;;;;;;16.67;15.00;;;;;13.46;100.00;101668.28;2113858;27;46825;-71
2024/02/06 01:22:56;;;;;;;;;11.33;9.00;;;;;13.47;100.00;101656.75;2114172;27;45579;-71
2024/02/06 01:23:57;;;;;;;;;16.25;14.75;;;;;13.46;100.00;101655.84;2087245;28;46263;-69
2024/02/06 01:24:57;;;;;;;;;17.75;16.75;;;;;13.61;100.00;101649.38;2079210;28;48058;-70
2024/02/06 01:25:58;;;;;;;;;18.75;16.25;;;;;13.61;100.00;101654.69;2104744;28;45596;-70
2024/02/06 01:26:59;;;;;;;;;12.33;11.00;;;;;13.58;100.00;101657.41;2113785;27;46080;-70
2024/02/06 01:28:00;;;;;;;;;12.75;12.75;;;;;13.45;100.00;101658.53;2114092;27;45676;-70
2024/02/06 01:29:00;;;;;;;;;11.00;10.67;;;;;13.57;100.00;101660.09;2113778;27;46467;-69
2024/02/06 01:30:00;;;;;;;;;13.67;12.00;;;;;13.56;100.00;101648.56;2113803;27;46265;-69
2024/02/06 01:31:00;;;;;;;;;12.67;11.00;;;;;13.60;100.00;101650.28;2112031;27;46435;-69
2024/02/06 01:32:01;;;;;;;;;12.00;10.33;;;;;13.58;100.00;101640.50;2113976;27;45388;-69
2024/02/06 01:33:01;;;;;;;;;14.00;12.50;;;;;13.61;100.00;101633.34;2114070;27;45831;-70
2024/02/06 01:34:01;;;;;;;;;14.33;11.00;;;;;13.60;100.00;101636.06;2113022;27;46098;-69
2024/02/06 01:35:02;;;;;;;;;17.33;13.33;;;;;13.62;100.00;101636.91;2113130;27;46460;-71
2024/02/06 01:36:03;;;;;;;;;15.67;13.33;;;;;13.62;100.00;101635.13;2113004;27;46734;-70
2024/02/06 01:37:03;;;;;;;;;13.75;12.75;;;;;13.60;100.00;101636.94;2113858;27;45058;-70
2024/02/06 01:38:04;;;;;;;;;15.33;15.00;;;;;13.48;100.00;101637.16;2113725;27;46530;-71
2024/02/06 01:39:04;;;;;;;;;16.67;16.33;;;;;13.59;100.00;101632.47;2104990;28;45463;-70
2024/02/06 01:40:05;;;;;;;;;14.67;14.00;;;;;13.64;100.00;101635.06;2104285;28;46274;-69
2024/02/06 01:41:06;;;;;;;;;14.50;14.50;;;;;13.62;100.00;101639.56;2113962;27;46394;-71
2024/02/06 01:42:06;;;;;;;;;18.67;15.00;;;;;13.51;100.00;101639.78;2114300;27;45998;-71
2024/02/06 01:43:06;;;;;;;;;16.67;14.33;;;;;13.45;100.00;101645.19;2114732;27;45810;-71
2024/02/06 01:44:07;;;;;;;;;14.33;13.33;;;;;13.61;100.00;101633.34;2113992;27;45276;-70
2024/02/06 01:45:07;;;;;;;;;15.00;12.00;;;;;13.62;100.00;101631.56;2113543;27;45292;-72
2024/02/06 01:46:08;;;;;;;;;15.33;15.00;;;;;13.63;100.00;101636.00;2113720;27;46543;-71
2024/02/06 01:47:09;;;;;;;;;16.25;14.75;;;;;13.63;100.00;101633.31;2111451;27;46367;-71
2024/02/06 01:48:12;;;;;;;;;12.50;12.50;;;;;13.64;100.00;101633.28;2109924;27;46329;-71
2024/02/06 01:49:13;;;;;;;;;14.75;14.75;;;;;13.74;100.00;101634.00;2112654;27;46434;-71
2024/02/06 01:50:13;;;;;;;;;17.67;15.67;;;;;13.73;100.00;101630.44;2113348;27;46310;-71
2024/02/06 01:51:16;;;;;;;;;16.67;16.67;;;;;13.79;100.00;101630.31;2113639;27;46830;-72
2024/02/06 01:52:17;;;;;;;;;14.25;14.25;;;;;13.79;100.00;101624.09;2112213;27;47093;-71
2024/02/06 01:53:19;;;;;;;;;14.00;12.33;;;;;13.78;100.00;101631.22;2095014;28;46884;-71
2024/02/06 01:54:20;;;;;;;;;17.25;15.75;;;;;13.74;100.00;101624.19;2087175;28;46960;-71
2024/02/06 01:55:20;;;;;;;;;15.67;13.67;;;;;13.67;100.00;101630.56;2093262;28;46530;-70
2024/02/06 01:56:21;;;;;;;;;15.00;15.00;;;;;13.69;100.00;101619.84;2113920;27;45151;-71
2024/02/06 01:57:21;;;;;;;;;18.00;16.33;;;;;13.68;100.00;101626.09;2114268;27;47278;-71
2024/02/06 01:58:22;;;;;;;;;12.00;12.00;;;;;13.69;100.00;101626.06;2114862;27;46809;-70
2024/02/06 01:59:23;;;;;;;;;15.25;14.50;;;;;13.66;100.00;101615.47;2115121;27;45953;-70
2024/02/06 02:00:24;;;;;;;;;16.00;14.00;;;;;13.66;100.00;101620.78;2116434;27;46348;-71
2024/02/06 02:01:24;;;;;;;;;20.00;17.25;;;;;13.76;100.00;101625.03;2106829;27;46877;-69
2024/02/06 02:02:25;;;;;;;;;15.00;13.00;;;;;13.77;100.00;101628.59;2106934;27;45910;-70
2024/02/06 02:03:26;;;;;;;;;12.25;11.25;;;;;13.74;100.00;101628.66;2116924;27;46528;-71
2024/02/06 02:04:27;;;;;;;;;14.00;14.00;;;;;13.79;100.00;101627.63;2113681;27;47145;-71
2024/02/06 02:05:27;;;;;;;;;16.33;14.33;;;;;13.73;100.00;101622.44;2113169;27;46319;-71
2024/02/06 02:06:28;;;;;;;;;14.00;13.67;;;;;13.74;100.00;101626.00;2113829;27;46827;-71
2024/02/06 02:07:29;;;;;;;;;14.33;14.33;;;;;13.74;100.00;101632.19;2112422;27;46343;-71
2024/02/06 02:08:34;;;;;;;;;14.25;14.25;;;;;13.73;100.00;101630.44;2111895;27;46714;-70
2024/02/06 02:09:34;;;;;;;;;13.25;13.00;;;;;13.64;100.00;101627.06;2113451;27;46440;-69
2024/02/06 02:10:34;;;;;;;;;15.67;13.00;;;;;13.68;100.00;101620.75;2113261;27;47536;-70
2024/02/06 02:11:35;;;;;;;;;17.33;15.33;;;;;13.74;100.00;101628.66;2112490;27;45758;-70
2024/02/06 02:12:38;;;;;;;;;15.67;14.67;;;;;13.74;100.00;101624.19;2113758;27;46215;-68
2024/02/06 02:13:38;;;;;;;;;15.25;12.50;;;;;13.77;100.00;101620.59;2113530;27;47152;-69
2024/02/06 02:14:39;;;;;;;;;16.00;15.00;;;;;13.77;100.00;101626.78;2113384;27;45827;-68
2024/02/06 02:15:39;;;;;;;;;15.00;13.00;;;;;13.73;100.00;101621.56;2113536;27;46171;-69
2024/02/06 02:16:39;;;;;;;;;16.67;15.33;;;;;13.82;100.00;101624.03;2113227;27;45116;-69
2024/02/06 02:17:39;;;;;;;;;23.00;18.67;;;;;13.79;100.00;101622.31;2113575;27;45559;-70
2024/02/06 02:18:40;;;;;;;;;18.67;16.67;;;;;13.83;100.00;101623.09;2113292;27;48157;-70
2024/02/06 02:19:40;;;;;;;;;18.50;16.75;;;;;13.86;100.00;101616.84;2109496;27;46631;-69
2024/02/06 02:20:44;;;;;;;;;17.00;15.00;;;;;13.88;100.00;101618.56;2113381;27;47095;-70
2024/02/06 02:21:44;;;;;;;;;19.00;17.00;;;;;13.88;100.00;101621.25;2113143;27;46414;-68
2024/02/06 02:22:44;;;;;;;;;19.33;17.67;;;;;13.86;100.00;101611.53;2113338;27;46118;-69
2024/02/06 02:23:45;;;;;;;;;16.33;15.67;;;;;13.96;100.00;101624.59;2113699;27;45952;-69
2024/02/06 02:24:46;;;;;;;;;15.00;14.00;;;;;13.89;100.00;101612.31;2112107;27;46624;-69
2024/02/06 02:25:47;;;;;;;;;17.00;15.33;;;;;13.93;100.00;101613.13;2113730;27;46779;-70
2024/02/06 02:26:48;;;;;;;;;18.50;16.00;;;;;13.89;100.00;101614.13;2113667;27;46162;-71
2024/02/06 02:27:50;;;;;;;;;20.00;18.00;;;;;13.89;100.00;101607.00;2110856;27;46562;-69
2024/02/06 02:28:51;;;;;;;;;19.50;17.25;;;;;13.86;100.00;101612.41;2113247;27;46419;-69
2024/02/06 02:29:55;;;;;;;;;19.80;18.00;;;;;13.88;100.00;101605.25;2113524;27;46799;-69
2024/02/06 02:30:57;;;;;;;;;16.40;15.60;;;;;13.86;100.00;101601.72;2113696;27;46316;-71
2024/02/06 02:31:59;;;;;;;;;16.60;15.60;;;;;13.86;100.00;101599.06;2112953;27;46934;-70
2024/02/06 02:32:59;;;;;;;;;12.60;7.80;;;;;13.87;100.00;101599.94;2107551;27;46337;-68
2024/02/06 02:33:59;;;;;;;;;18.25;18.00;;;;;13.87;100.00;101594.59;2113767;27;46434;-68
2024/02/06 02:35:00;;;;;;;;;18.00;17.25;;;;;13.86;100.00;101600.84;2114007;27;46271;-70
2024/02/06 02:36:04;;;;;;;;;17.67;17.67;;;;;13.87;100.00;101595.47;2113278;27;46422;-70
2024/02/06 02:37:04;;;;;;;;;19.50;18.25;;;;;13.80;100.00;101597.38;2113459;27;46969;-68
2024/02/06 02:38:04;;;;;;;;;18.00;15.33;;;;;13.89;100.00;101598.97;2113314;27;46925;-69
2024/02/06 02:39:06;;;;;;;;;13.33;13.33;;;;;13.91;100.00;101597.16;2113414;27;46338;-68
2024/02/06 02:40:07;;;;;;;;;16.50;16.50;;;;;13.91;100.00;101593.63;2113262;27;46762;-70
2024/02/06 02:41:07;;;;;;;;;19.33;19.33;;;;;13.87;100.00;101595.47;2113169;27;46323;-70
2024/02/06 02:42:08;;;;;;;;;18.67;17.00;;;;;13.91;100.00;101590.94;2112961;27;46290;-72
2024/02/06 02:43:08;;;;;;;;;18.50;15.75;;;;;13.85;100.00;101597.31;2111888;27;46591;-72
2024/02/06 02:44:09;;;;;;;;;16.00;16.00;;;;;13.92;100.00;101593.56;2113277;27;46386;-72
2024/02/06 02:45:09;;;;;;;;;16.25;14.50;;;;;13.87;100.00;101592.81;2113153;27;46681;-71
2024/02/06 02:46:11;;;;;;;;;18.67;16.67;;;;;13.82;100.00;101584.00;2113183;27;46883;-71
2024/02/06 02:47:11;;;;;;;;;21.00;18.80;;;;;13.86;100.00;101590.19;2110687;27;45611;-71
2024/02/06 02:48:11;;;;;;;;;16.50;14.25;;;;;13.87;100.00;101584.81;2111809;27;46354;-70
2024/02/06 02:49:12;;;;;;;;;16.33;14.00;;;;;13.84;100.00;101583.06;2112752;27;46159;-70
2024/02/06 02:50:13;;;;;;;;;18.60;18.60;;;;;13.88;100.00;101583.88;2113362;27;47269;-72
2024/02/06 02:51:13;;;;;;;;;16.00;14.00;;;;;13.77;100.00;101581.44;2114745;27;46287;-69
2024/02/06 02:52:14;;;;;;;;;18.00;16.00;;;;;13.76;100.00;101587.69;2103823;27;46516;-72
2024/02/06 02:53:14;;;;;;;;;19.67;17.00;;;;;13.76;100.00;101584.16;2103266;27;46457;-71
2024/02/06 02:54:16;;;;;;;;;13.67;13.00;;;;;13.74;100.00;101577.97;2113201;27;46680;-70
2024/02/06 02:55:16;;;;;;;;;20.25;16.75;;;;;13.82;100.00;101573.34;2102466;27;46920;-72
2024/02/06 02:56:17;;;;;;;;;19.33;17.33;;;;;13.78;100.00;101582.31;2104349;28;46235;-71
2024/02/06 02:57:17;;;;;;;;;18.25;18.00;;;;;13.80;100.00;101586.72;2110711;27;46403;-71
2024/02/06 02:58:18;;;;;;;;;11.75;11.75;;;;;13.81;100.00;101577.78;2113271;27;46267;-71
2024/02/06 02:59:18;;;;;;;;;17.67;15.33;;;;;13.81;100.00;101567.13;2113437;27;46249;-71
2024/02/06 03:00:20;;;;;;;;;25.00;20.33;;;;;13.78;100.00;101569.84;2111582;27;46545;-72
2024/02/06 03:01:20;;;;;;;;;19.25;19.25;;;;;13.74;100.00;101569.97;2113381;27;45499;-72
2024/02/06 03:02:21;;;;;;;;;18.00;15.00;;;;;13.77;100.00;101584.13;2113222;27;45562;-70
2024/02/06 03:03:21;;;;;;;;;18.50;17.25;;;;;13.72;100.00;101575.34;2109985;27;46451;-72
2024/02/06 03:04:22;;;;;;;;;18.33;17.00;;;;;13.71;100.00;101581.56;2113383;27;46743;-72
2024/02/06 03:05:22;;;;;;;;;24.25;18.00;;;;;13.71;100.00;101573.56;2113410;27;47215;-73
2024/02/06 03:06:22;;;;;;;;;20.33;20.00;;;;;13.73;100.00;101574.44;2112848;27;46499;-72
2024/02/06 03:07:23;;;;;;;;;21.00;19.00;;;;;13.69;100.00;101572.72;2113292;27;46551;-71
2024/02/06 03:08:23;;;;;;;;;18.67;15.67;;;;;13.57;100.00;101572.09;2113092;27;46165;-72
2024/02/06 03:09:23;;;;;;;;;22.25;19.00;;;;;13.70;100.00;101571.81;2114708;27;45931;-72
2024/02/06 03:10:24;;;;;;;;;18.25;18.25;;;;;13.70;100.00;101570.91;2114695;27;46729;-70
2024/02/06 03:11:26;;;;;;;;;20.75;16.00;;;;;13.86;100.00;101560.81;2114416;27;46446;-72
2024/02/06 03:12:31;;;;;;;;;22.60;20.20;;;;;13.88;100.00;101567.00;2114743;27;46928;-72
2024/02/06 03:13:32;;;;;;;;;24.00;19.50;;;;;13.71;100.00;101554.88;2114437;27;46447;-71
2024/02/06 03:14:32;;;;;;;;;22.33;18.33;;;;;13.70;100.00;101546.91;2114548;27;46122;-71
2024/02/06 03:15:32;;;;;;;;;17.00;15.00;;;;;13.63;100.00;101540.84;2114608;27;46417;-70
2024/02/06 03:16:34;;;;;;;;;16.00;16.00;;;;;13.64;100.00;101539.94;2113287;27;45402;-70
2024/02/06 03:17:34;;;;;;;;;21.60;20.60;;;;;13.68;100.00;101548.75;2113413;27;46550;-68
2024/02/06 03:18:35;;;;;;;;;20.67;16.33;;;;;13.72;100.00;101547.75;2117810;27;45461;-70
2024/02/06 03:19:35;;;;;;;;;18.50;17.00;;;;;13.73;100.00;101546.88;2117117;27;46946;-71
2024/02/06 03:20:35;;;;;;;;;16.00;15.50;;;;;13.67;100.00;101553.19;2117275;27;46625;-71
2024/02/06 03:21:36;;;;;;;;;20.00;18.50;;;;;13.72;100.00;101539.75;2117815;27;46443;-70
2024/02/06 03:22:36;;;;;;;;;24.00;16.75;;;;;13.66;100.00;101534.56;2116467;27;45555;-70
2024/02/06 03:23:36;;;;;;;;;21.25;19.75;;;;;13.62;100.00;101535.56;2116219;27;47123;-69
2024/02/06 03:24:36;;;;;;;;;21.25;20.75;;;;;13.75;100.00;101535.25;2116990;27;46707;-70
2024/02/06 03:25:37;;;;;;;;;21.25;20.00;;;;;13.73;100.00;101539.75;2117236;27;47280;-71
2024/02/06 03:26:37;;;;;;;;;21.00;19.00;;;;;13.67;100.00;101531.84;2113733;27;46558;-71
2024/02/06 03:27:41;;;;;;;;;21.25;19.00;;;;;13.61;100.00;101534.66;2114105;27;46303;-71
2024/02/06 03:28:41;;;;;;;;;18.80;16.60;;;;;13.63;100.00;101532.84;2114530;27;46518;-70
2024/02/06 03:29:42;;;;;;;;;19.25;18.25;;;;;13.67;100.00;101537.19;2113620;27;46287;-71
2024/02/06 03:30:43;;;;;;;;;19.25;18.25;;;;;13.69;100.00;101532.69;2105545;28;46256;-71
2024/02/06 03:31:44;;;;;;;;;17.60;15.40;;;;;13.79;100.00;101536.94;2104072;27;46741;-71
2024/02/06 03:32:46;;;;;;;;;17.67;17.67;;;;;13.82;100.00;101520.84;2114570;27;46671;-71
2024/02/06 03:33:46;;;;;;;;;19.40;19.40;;;;;13.71;100.00;101522.88;2114138;27;46258;-71
2024/02/06 03:34:47;;;;;;;;;19.25;17.75;;;;;13.68;100.00;101524.72;2096073;28;46560;-70
2024/02/06 03:35:47;;;;;;;;;21.00;17.33;;;;;13.75;100.00;101534.38;2092895;28;45661;-71
2024/02/06 03:36:47;;;;;;;;;22.00;19.00;;;;;13.71;100.00;101530.00;2114279;27;46809;-72
2024/02/06 03:37:47;;;;;;;;;24.67;18.00;;;;;13.78;100.00;101524.50;2114915;27;46248;-71
2024/02/06 03:38:48;;;;;;;;;19.50;19.50;;;;;13.81;100.00;101519.09;2114878;27;46199;-71
2024/02/06 03:39:48;;;;;;;;;21.25;18.00;;;;;13.81;100.00;101511.09;2115043;27;46697;-72
2024/02/06 03:40:48;;;;;;;;;18.33;18.33;;;;;13.81;100.00;101523.56;2087801;28;46749;-70
2024/02/06 03:41:49;;;;;;;;;22.50;22.50;;;;;13.82;100.00;101520.84;2088091;28;46681;-69
2024/02/06 03:42:49;;;;;;;;;16.75;16.75;;;;;13.85;100.00;101533.28;2114163;27;46271;-70
2024/02/06 03:43:50;;;;;;;;;17.25;13.75;;;;;13.82;100.00;101528.84;2114760;27;44945;-70
2024/02/06 03:44:50;;;;;;;;;21.00;19.00;;;;;13.76;100.00;101521.00;2114385;27;46319;-70
2024/02/06 03:45:50;;;;;;;;;16.00;16.00;;;;;13.81;100.00;101510.22;2114504;27;46233;-70
2024/02/06 03:46:51;;;;;;;;;19.33;17.67;;;;;13.77;100.00;101512.09;2114307;27;45519;-70
2024/02/06 03:47:51;;;;;;;;;22.75;21.25;;;;;13.78;100.00;101524.50;2114255;27;46359;-71
2024/02/06 03:48:51;;;;;;;;;17.00;17.00;;;;;13.77;100.00;101514.75;2114496;27;45907;-70
2024/02/06 03:49:52;;;;;;;;;17.67;16.00;;;;;13.78;100.00;101516.50;2114487;27;46500;-71
2024/02/06 03:50:52;;;;;;;;;24.33;17.67;;;;;13.79;100.00;101520.94;2113787;27;45997;-70
2024/02/06 03:51:53;;;;;;;;;17.67;17.33;;;;;13.89;100.00;101518.94;2111061;27;46561;-70
2024/02/06 03:52:53;;;;;;;;;17.67;15.67;;;;;13.89;100.00;101516.28;2113976;27;45697;-69
2024/02/06 03:53:53;;;;;;;;;17.33;17.33;;;;;13.93;100.00;101512.59;2113363;27;46301;-70
2024/02/06 03:54:54;;;;;;;;;20.00;18.67;;;;;13.93;100.00;101512.59;2116603;27;46454;-69
2024/02/06 03:55:54;;;;;;;;;16.67;16.67;;;;;13.97;100.00;101519.63;2113366;27;46117;-71
2024/02/06 03:56:54;;;;;;;;;23.50;19.75;;;;;13.99;100.00;101512.47;2116739;27;45062;-68
2024/02/06 03:57:55;;;;;;;;;19.50;18.75;;;;;13.97;100.00;101510.75;2117027;27;46170;-70
2024/02/06 03:58:55;;;;;;;;;21.50;21.50;;;;;13.98;100.00;101512.53;2107963;27;47611;-70
2024/02/06 03:59:55;;;;;;;;;19.67;19.00;;;;;13.98;100.00;101523.19;2108041;27;46172;-70
2024/02/06 04:00:56;;;;;;;;;23.75;19.25;;;;;13.98;100.00;101516.06;2117466;27;46306;-71
2024/02/06 04:01:56;;;;;;;;;19.33;16.33;;;;;14.00;100.00;101518.69;2116589;27;46746;-71
2024/02/06 04:02:56;;;;;;;;;19.33;17.67;;;;;13.99;100.00;101514.28;2116391;27;45902;-71
2024/02/06 04:03:57;;;;;;;;;20.00;18.33;;;;;13.96;100.00;101509.84;2108660;27;46478;-71
2024/02/06 04:04:57;;;;;;;;;18.75;17.75;;;;;13.98;100.00;101507.19;2105348;28;46128;-71
2024/02/06 04:05:57;;;;;;;;;20.50;16.00;;;;;13.99;100.00;101507.16;2108803;27;46710;-71
2024/02/06 04:06:58;;;;;;;;;23.50;21.50;;;;;13.98;100.00;101508.06;2113807;27;46150;-71
2024/02/06 04:07:58;;;;;;;;;22.00;19.00;;;;;13.95;100.00;101501.91;2114599;27;45849;-70
2024/02/06 04:08:59;;;;;;;;;13.75;13.75;;;;;13.96;100.00;101499.19;2114174;27;46493;-71
2024/02/06 04:09:59;;;;;;;;;23.50;21.25;;;;;13.97;100.00;101498.28;2114220;27;46871;-71
2024/02/06 04:11:00;;;;;;;;;25.25;18.25;;;;;13.99;100.00;101495.59;2113837;27;45921;-71
2024/02/06 04:12:00;;;;;;;;;25.75;20.00;;;;;13.98;100.00;101494.72;2114176;27;46640;-70
2024/02/06 04:13:00;;;;;;;;;20.25;19.00;;;;;13.90;100.00;101493.13;2112604;27;46745;-69
2024/02/06 04:14:01;;;;;;;;;20.75;19.25;;;;;13.88;100.00;101494.97;2114856;27;46946;-70
2024/02/06 04:15:01;;;;;;;;;20.00;18.25;;;;;13.87;100.00;101491.41;2114639;27;46728;-70
2024/02/06 04:16:04;;;;;;;;;18.25;17.75;;;;;13.88;100.00;101493.16;2114530;27;46187;-71
2024/02/06 04:17:04;;;;;;;;;22.50;21.25;;;;;13.89;100.00;101486.91;2114019;27;47178;-70
2024/02/06 04:18:05;;;;;;;;;20.50;20.00;;;;;13.90;100.00;101493.13;2114099;27;47202;-69
2024/02/06 04:19:05;;;;;;;;;21.50;17.75;;;;;13.91;100.00;101490.41;2114366;27;46275;-70
2024/02/06 04:20:06;;;;;;;;;18.00;16.25;;;;;13.91;100.00;101502.88;2114746;27;47122;-71
2024/02/06 04:21:07;;;;;;;;;24.00;22.00;;;;;13.92;100.00;101501.97;2095343;28;46758;-70
2024/02/06 04:22:07;;;;;;;;;21.00;19.75;;;;;13.93;100.00;101479.72;2096416;28;46669;-71
2024/02/06 04:23:07;;;;;;;;;15.75;15.00;;;;;13.95;100.00;101488.56;2114026;27;46216;-70
2024/02/06 04:24:08;;;;;;;;;23.75;22.25;;;;;13.89;100.00;101497.59;2114107;27;45738;-70
2024/02/06 04:25:08;;;;;;;;;18.25;16.75;;;;;13.91;100.00;101497.56;2114542;27;45248;-70
2024/02/06 04:26:09;;;;;;;;;20.25;19.75;;;;;13.89;100.00;101496.72;2114386;27;46191;-70
2024/02/06 04:27:09;;;;;;;;;19.75;19.25;;;;;13.88;100.00;101490.50;2115268;27;45528;-70
2024/02/06 04:28:09;;;;;;;;;20.25;19.50;;;;;13.84;100.00;101489.66;2114067;27;46479;-69
2024/02/06 04:29:10;;;;;;;;;18.00;18.00;;;;;13.82;100.00;101493.28;2114162;27;46269;-69
2024/02/06 04:30:13;;;;;;;;;18.67;18.67;;;;;13.88;100.00;101494.97;2112691;27;46784;-69
2024/02/06 04:31:14;;;;;;;;;18.00;17.75;;;;;13.89;100.00;101494.91;2112128;27;46626;-70
2024/02/06 04:32:14;;;;;;;;;19.25;19.25;;;;;13.88;100.00;101494.97;2114348;27;46474;-70